sensor_id;sensor_type;location;lat;lon;timestamp;P1;durP1;ratioP1;P2;durP2;ratioP2
27758;SDS011;15148;48.972;12.794;2023-12-29T00:04:59;4.20;;;3.53;;
27758;SDS011;15148;48.972;12.794;2023-12-29T00:10:01;5.30;;;4.47;;
27758;SDS011;15148;48.972;12.794;2023-12-29T00:15:04;5.53;;;3.90;;
27758;SDS011;15148;48.972;12.794;2023-12-29T00:20:07;5.18;;;4.00;;
27758;SDS011;15148;48.972;12.794;2023-12-29T00:25:09;5.20;;;4.03;;
27758;SDS011;15148;48.972;12.794;2023-12-29T00:30:12;4.53;;;3.88;;
27758;SDS011;15148;48.972;12.794;2023-12-29T00:35:15;4.10;;;3.60;;
27758;SDS011;15148;48.972;12.794;2023-12-29T00:40:17;5.35;;;4.15;;
27758;SDS011;15148;48.972;12.794;2023-12-29T00:45:19;4.57;;;4.18;;
27758;SDS011;15148;48.972;12.794;2023-12-29T00:50:22;7.40;;;4.38;;
27758;SDS011;15148;48.972;12.794;2023-12-29T00:55:24;5.07;;;4.20;;
27758;SDS011;15148;48.972;12.794;2023-12-29T01:00:26;6.00;;;4.35;;
27758;SDS011;15148;48.972;12.794;2023-12-29T01:05:28;5.80;;;3.97;;
27758;SDS011;15148;48.972;12.794;2023-12-29T01:10:31;6.15;;;4.20;;
27758;SDS011;15148;48.972;12.794;2023-12-29T01:15:33;4.63;;;3.70;;
27758;SDS011;15148;48.972;12.794;2023-12-29T01:20:35;4.57;;;3.92;;
27758;SDS011;15148;48.972;12.794;2023-12-29T01:25:37;5.90;;;3.90;;
27758;SDS011;15148;48.972;12.794;2023-12-29T01:30:39;4.50;;;3.95;;
27758;SDS011;15148;48.972;12.794;2023-12-29T01:35:42;5.97;;;4.22;;
27758;SDS011;15148;48.972;12.794;2023-12-29T01:40:44;4.53;;;3.92;;
27758;SDS011;15148;48.972;12.794;2023-12-29T01:45:47;5.32;;;3.97;;
27758;SDS011;15148;48.972;12.794;2023-12-29T01:50:58;5.43;;;3.95;;
27758;SDS011;15148;48.972;12.794;2023-12-29T01:56:00;4.43;;;3.55;;
27758;SDS011;15148;48.972;12.794;2023-12-29T02:01:02;3.60;;;3.30;;
27758;SDS011;15148;48.972;12.794;2023-12-29T02:06:06;6.28;;;3.97;;
27758;SDS011;15148;48.972;12.794;2023-12-29T02:11:10;6.10;;;4.13;;
27758;SDS011;15148;48.972;12.794;2023-12-29T02:16:16;5.18;;;4.00;;
27758;SDS011;15148;48.972;12.794;2023-12-29T02:21:25;5.70;;;3.92;;
27758;SDS011;15148;48.972;12.794;2023-12-29T02:26:27;4.40;;;4.00;;
27758;SDS011;15148;48.972;12.794;2023-12-29T02:31:34;5.05;;;3.83;;
27758;SDS011;15148;48.972;12.794;2023-12-29T02:36:40;4.82;;;4.03;;
27758;SDS011;15148;48.972;12.794;2023-12-29T02:41:44;4.25;;;3.63;;
27758;SDS011;15148;48.972;12.794;2023-12-29T02:46:46;6.43;;;4.05;;
27758;SDS011;15148;48.972;12.794;2023-12-29T02:51:48;5.53;;;3.88;;
27758;SDS011;15148;48.972;12.794;2023-12-29T02:56:51;4.50;;;4.05;;
27758;SDS011;15148;48.972;12.794;2023-12-29T03:01:53;8.75;;;4.45;;
27758;SDS011;15148;48.972;12.794;2023-12-29T03:06:55;5.32;;;3.45;;
27758;SDS011;15148;48.972;12.794;2023-12-29T03:11:58;6.97;;;3.80;;
27758;SDS011;15148;48.972;12.794;2023-12-29T03:17:00;3.97;;;3.42;;
27758;SDS011;15148;48.972;12.794;2023-12-29T03:22:02;5.22;;;4.32;;
27758;SDS011;15148;48.972;12.794;2023-12-29T03:27:04;8.18;;;3.88;;
27758;SDS011;15148;48.972;12.794;2023-12-29T03:32:06;4.70;;;3.72;;
27758;SDS011;15148;48.972;12.794;2023-12-29T03:37:08;5.03;;;3.65;;
27758;SDS011;15148;48.972;12.794;2023-12-29T03:42:11;5.50;;;3.63;;
27758;SDS011;15148;48.972;12.794;2023-12-29T03:47:13;3.97;;;3.38;;
27758;SDS011;15148;48.972;12.794;2023-12-29T03:52:15;4.78;;;3.53;;
27758;SDS011;15148;48.972;12.794;2023-12-29T03:57:17;5.47;;;3.45;;
27758;SDS011;15148;48.972;12.794;2023-12-29T04:02:19;4.00;;;3.63;;
27758;SDS011;15148;48.972;12.794;2023-12-29T04:07:21;5.40;;;3.35;;
27758;SDS011;15148;48.972;12.794;2023-12-29T04:12:23;3.50;;;3.20;;
27758;SDS011;15148;48.972;12.794;2023-12-29T04:17:25;4.45;;;3.17;;
27758;SDS011;15148;48.972;12.794;2023-12-29T04:22:27;3.10;;;2.80;;
27758;SDS011;15148;48.972;12.794;2023-12-29T04:27:29;3.88;;;3.45;;
27758;SDS011;15148;48.972;12.794;2023-12-29T04:32:31;4.07;;;3.20;;
27758;SDS011;15148;48.972;12.794;2023-12-29T04:37:33;4.15;;;3.55;;
27758;SDS011;15148;48.972;12.794;2023-12-29T04:42:35;6.28;;;3.60;;
27758;SDS011;15148;48.972;12.794;2023-12-29T04:47:38;4.13;;;3.38;;
27758;SDS011;15148;48.972;12.794;2023-12-29T04:52:40;4.97;;;3.60;;
27758;SDS011;15148;48.972;12.794;2023-12-29T04:57:42;4.40;;;3.72;;
27758;SDS011;15148;48.972;12.794;2023-12-29T05:02:44;4.30;;;3.85;;
27758;SDS011;15148;48.972;12.794;2023-12-29T05:07:46;5.15;;;3.88;;
27758;SDS011;15148;48.972;12.794;2023-12-29T05:12:48;5.30;;;3.75;;
27758;SDS011;15148;48.972;12.794;2023-12-29T05:17:50;4.38;;;3.42;;
27758;SDS011;15148;48.972;12.794;2023-12-29T05:22:52;5.47;;;3.55;;
27758;SDS011;15148;48.972;12.794;2023-12-29T05:27:54;7.60;;;6.72;;
27758;SDS011;15148;48.972;12.794;2023-12-29T05:32:56;7.72;;;4.90;;
27758;SDS011;15148;48.972;12.794;2023-12-29T05:37:58;7.47;;;4.47;;
27758;SDS011;15148;48.972;12.794;2023-12-29T05:43:00;5.18;;;4.03;;
27758;SDS011;15148;48.972;12.794;2023-12-29T05:48:03;5.72;;;4.20;;
27758;SDS011;15148;48.972;12.794;2023-12-29T05:53:05;6.78;;;5.30;;
27758;SDS011;15148;48.972;12.794;2023-12-29T05:58:08;6.68;;;5.80;;
27758;SDS011;15148;48.972;12.794;2023-12-29T06:03:10;4.65;;;3.80;;
27758;SDS011;15148;48.972;12.794;2023-12-29T06:08:12;6.38;;;3.95;;
27758;SDS011;15148;48.972;12.794;2023-12-29T06:13:14;4.85;;;4.20;;
27758;SDS011;15148;48.972;12.794;2023-12-29T06:18:16;4.25;;;3.85;;
27758;SDS011;15148;48.972;12.794;2023-12-29T06:23:18;4.55;;;3.95;;
27758;SDS011;15148;48.972;12.794;2023-12-29T06:28:21;3.90;;;3.22;;
27758;SDS011;15148;48.972;12.794;2023-12-29T06:33:24;4.20;;;3.80;;
27758;SDS011;15148;48.972;12.794;2023-12-29T06:38:26;4.63;;;4.22;;
27758;SDS011;15148;48.972;12.794;2023-12-29T06:43:28;5.60;;;5.00;;
27758;SDS011;15148;48.972;12.794;2023-12-29T06:48:30;5.70;;;3.60;;
27758;SDS011;15148;48.972;12.794;2023-12-29T06:53:33;5.43;;;4.65;;
27758;SDS011;15148;48.972;12.794;2023-12-29T06:58:35;7.93;;;5.20;;
27758;SDS011;15148;48.972;12.794;2023-12-29T07:03:37;10.48;;;8.15;;
27758;SDS011;15148;48.972;12.794;2023-12-29T07:08:39;8.60;;;6.85;;
27758;SDS011;15148;48.972;12.794;2023-12-29T07:13:41;8.15;;;6.28;;
27758;SDS011;15148;48.972;12.794;2023-12-29T07:18:44;7.57;;;6.78;;
27758;SDS011;15148;48.972;12.794;2023-12-29T07:23:46;5.10;;;4.32;;
27758;SDS011;15148;48.972;12.794;2023-12-29T07:28:48;4.55;;;4.10;;
27758;SDS011;15148;48.972;12.794;2023-12-29T07:33:55;3.97;;;3.37;;
27758;SDS011;15148;48.972;12.794;2023-12-29T07:38:58;5.07;;;4.05;;
27758;SDS011;15148;48.972;12.794;2023-12-29T07:44:00;7.60;;;4.00;;
27758;SDS011;15148;48.972;12.794;2023-12-29T07:49:02;4.35;;;3.88;;
27758;SDS011;15148;48.972;12.794;2023-12-29T07:54:04;9.80;;;6.53;;
27758;SDS011;15148;48.972;12.794;2023-12-29T07:59:06;6.65;;;6.05;;
27758;SDS011;15148;48.972;12.794;2023-12-29T08:04:08;8.05;;;5.15;;
27758;SDS011;15148;48.972;12.794;2023-12-29T08:09:13;4.68;;;3.95;;
27758;SDS011;15148;48.972;12.794;2023-12-29T08:14:15;5.30;;;4.00;;
27758;SDS011;15148;48.972;12.794;2023-12-29T08:19:17;4.35;;;3.70;;
27758;SDS011;15148;48.972;12.794;2023-12-29T08:24:19;3.92;;;3.63;;
27758;SDS011;15148;48.972;12.794;2023-12-29T08:29:21;4.63;;;3.97;;
27758;SDS011;15148;48.972;12.794;2023-12-29T08:34:27;7.75;;;4.28;;
27758;SDS011;15148;48.972;12.794;2023-12-29T08:39:29;6.72;;;4.22;;
27758;SDS011;15148;48.972;12.794;2023-12-29T08:44:31;6.88;;;5.10;;
27758;SDS011;15148;48.972;12.794;2023-12-29T08:49:33;6.78;;;4.65;;
27758;SDS011;15148;48.972;12.794;2023-12-29T08:54:36;6.00;;;4.13;;
27758;SDS011;15148;48.972;12.794;2023-12-29T08:59:38;4.55;;;4.00;;
27758;SDS011;15148;48.972;12.794;2023-12-29T09:04:40;8.15;;;6.22;;
27758;SDS011;15148;48.972;12.794;2023-12-29T09:09:42;8.93;;;6.68;;
27758;SDS011;15148;48.972;12.794;2023-12-29T09:14:44;24.75;;;16.15;;
27758;SDS011;15148;48.972;12.794;2023-12-29T09:19:47;5.75;;;5.05;;
27758;SDS011;15148;48.972;12.794;2023-12-29T09:25:00;6.10;;;5.15;;
27758;SDS011;15148;48.972;12.794;2023-12-29T09:30:03;7.32;;;5.57;;
27758;SDS011;15148;48.972;12.794;2023-12-29T09:35:06;7.45;;;6.32;;
27758;SDS011;15148;48.972;12.794;2023-12-29T09:40:09;6.95;;;6.25;;
27758;SDS011;15148;48.972;12.794;2023-12-29T09:45:12;7.47;;;6.78;;
27758;SDS011;15148;48.972;12.794;2023-12-29T09:50:15;7.20;;;6.47;;
27758;SDS011;15148;48.972;12.794;2023-12-29T09:55:18;7.13;;;5.57;;
27758;SDS011;15148;48.972;12.794;2023-12-29T10:00:21;6.13;;;5.53;;
27758;SDS011;15148;48.972;12.794;2023-12-29T10:05:23;6.97;;;5.40;;
27758;SDS011;15148;48.972;12.794;2023-12-29T10:10:25;6.85;;;5.75;;
27758;SDS011;15148;48.972;12.794;2023-12-29T10:15:50;7.75;;;6.32;;
27758;SDS011;15148;48.972;12.794;2023-12-29T10:26:07;5.75;;;4.78;;
27758;SDS011;15148;48.972;12.794;2023-12-29T10:31:14;7.45;;;5.70;;
27758;SDS011;15148;48.972;12.794;2023-12-29T10:36:17;6.80;;;4.40;;
27758;SDS011;15148;48.972;12.794;2023-12-29T10:41:19;5.03;;;4.50;;
27758;SDS011;15148;48.972;12.794;2023-12-29T10:46:21;4.43;;;4.00;;
27758;SDS011;15148;48.972;12.794;2023-12-29T10:51:27;6.18;;;5.15;;
27758;SDS011;15148;48.972;12.794;2023-12-29T10:56:32;6.30;;;4.80;;
27758;SDS011;15148;48.972;12.794;2023-12-29T11:01:35;8.18;;;6.65;;
27758;SDS011;15148;48.972;12.794;2023-12-29T11:06:41;5.65;;;5.00;;
27758;SDS011;15148;48.972;12.794;2023-12-29T11:11:46;4.88;;;3.95;;
27758;SDS011;15148;48.972;12.794;2023-12-29T11:16:49;7.68;;;6.88;;
27758;SDS011;15148;48.972;12.794;2023-12-29T11:21:53;9.65;;;5.95;;
27758;SDS011;15148;48.972;12.794;2023-12-29T11:26:57;6.07;;;4.90;;
27758;SDS011;15148;48.972;12.794;2023-12-29T11:32:00;4.40;;;3.97;;
27758;SDS011;15148;48.972;12.794;2023-12-29T11:37:11;6.22;;;4.55;;
27758;SDS011;15148;48.972;12.794;2023-12-29T11:42:35;7.60;;;6.05;;
27758;SDS011;15148;48.972;12.794;2023-12-29T11:47:41;5.70;;;4.70;;
27758;SDS011;15148;48.972;12.794;2023-12-29T11:52:43;5.22;;;4.72;;
27758;SDS011;15148;48.972;12.794;2023-12-29T11:57:45;4.88;;;4.38;;
27758;SDS011;15148;48.972;12.794;2023-12-29T12:02:47;5.55;;;4.43;;
27758;SDS011;15148;48.972;12.794;2023-12-29T12:12:58;4.97;;;3.90;;
27758;SDS011;15148;48.972;12.794;2023-12-29T12:18:01;4.63;;;4.22;;
27758;SDS011;15148;48.972;12.794;2023-12-29T12:23:11;5.40;;;4.90;;
27758;SDS011;15148;48.972;12.794;2023-12-29T12:28:18;5.20;;;4.45;;
27758;SDS011;15148;48.972;12.794;2023-12-29T12:33:20;6.35;;;4.57;;
27758;SDS011;15148;48.972;12.794;2023-12-29T12:38:22;5.13;;;4.63;;
27758;SDS011;15148;48.972;12.794;2023-12-29T12:43:26;5.38;;;4.43;;
27758;SDS011;15148;48.972;12.794;2023-12-29T12:53:39;4.68;;;4.15;;
27758;SDS011;15148;48.972;12.794;2023-12-29T12:58:46;5.57;;;4.40;;
27758;SDS011;15148;48.972;12.794;2023-12-29T13:03:49;5.57;;;4.63;;
27758;SDS011;15148;48.972;12.794;2023-12-29T13:08:51;5.10;;;4.40;;
27758;SDS011;15148;48.972;12.794;2023-12-29T13:13:55;6.22;;;4.53;;
27758;SDS011;15148;48.972;12.794;2023-12-29T13:19:23;7.83;;;5.43;;
27758;SDS011;15148;48.972;12.794;2023-12-29T13:24:27;6.40;;;5.15;;
27758;SDS011;15148;48.972;12.794;2023-12-29T13:29:30;5.35;;;4.90;;
27758;SDS011;15148;48.972;12.794;2023-12-29T13:40:00;7.35;;;5.18;;
27758;SDS011;15148;48.972;12.794;2023-12-29T13:45:14;5.30;;;4.68;;
27758;SDS011;15148;48.972;12.794;2023-12-29T13:50:17;5.40;;;4.85;;
27758;SDS011;15148;48.972;12.794;2023-12-29T13:55:23;6.20;;;4.72;;
27758;SDS011;15148;48.972;12.794;2023-12-29T14:00:26;5.85;;;4.70;;
27758;SDS011;15148;48.972;12.794;2023-12-29T14:10:57;5.77;;;5.17;;
27758;SDS011;15148;48.972;12.794;2023-12-29T14:15:59;10.52;;;6.65;;
27758;SDS011;15148;48.972;12.794;2023-12-29T14:21:02;11.23;;;9.50;;
27758;SDS011;15148;48.972;12.794;2023-12-29T14:26:04;11.52;;;10.10;;
27758;SDS011;15148;48.972;12.794;2023-12-29T14:31:17;12.93;;;10.35;;
27758;SDS011;15148;48.972;12.794;2023-12-29T14:36:19;11.10;;;9.45;;
27758;SDS011;15148;48.972;12.794;2023-12-29T14:41:22;9.15;;;8.18;;
27758;SDS011;15148;48.972;12.794;2023-12-29T14:46:25;10.73;;;9.13;;
27758;SDS011;15148;48.972;12.794;2023-12-29T14:51:27;9.73;;;8.23;;
27758;SDS011;15148;48.972;12.794;2023-12-29T14:56:30;9.20;;;8.23;;
27758;SDS011;15148;48.972;12.794;2023-12-29T15:01:32;8.60;;;7.80;;
27758;SDS011;15148;48.972;12.794;2023-12-29T15:06:34;8.98;;;7.72;;
27758;SDS011;15148;48.972;12.794;2023-12-29T15:11:36;19.77;;;13.77;;
27758;SDS011;15148;48.972;12.794;2023-12-29T15:16:38;10.63;;;8.63;;
27758;SDS011;15148;48.972;12.794;2023-12-29T15:21:40;15.85;;;13.77;;
27758;SDS011;15148;48.972;12.794;2023-12-29T15:26:42;13.63;;;9.80;;
27758;SDS011;15148;48.972;12.794;2023-12-29T15:31:44;8.23;;;7.40;;
27758;SDS011;15148;48.972;12.794;2023-12-29T15:36:48;8.32;;;7.03;;
27758;SDS011;15148;48.972;12.794;2023-12-29T15:41:50;13.18;;;10.70;;
27758;SDS011;15148;48.972;12.794;2023-12-29T15:46:52;10.77;;;9.30;;
27758;SDS011;15148;48.972;12.794;2023-12-29T15:51:55;6.60;;;5.25;;
27758;SDS011;15148;48.972;12.794;2023-12-29T15:56:57;4.57;;;4.18;;
27758;SDS011;15148;48.972;12.794;2023-12-29T16:01:59;4.60;;;4.15;;
27758;SDS011;15148;48.972;12.794;2023-12-29T16:07:02;5.30;;;4.32;;
27758;SDS011;15148;48.972;12.794;2023-12-29T16:12:04;5.43;;;4.18;;
27758;SDS011;15148;48.972;12.794;2023-12-29T16:17:07;6.50;;;4.88;;
27758;SDS011;15148;48.972;12.794;2023-12-29T16:22:09;6.28;;;5.50;;
27758;SDS011;15148;48.972;12.794;2023-12-29T16:27:11;7.03;;;6.10;;
27758;SDS011;15148;48.972;12.794;2023-12-29T16:32:21;22.17;;;14.07;;
27758;SDS011;15148;48.972;12.794;2023-12-29T16:37:25;9.43;;;6.60;;
27758;SDS011;15148;48.972;12.794;2023-12-29T16:42:28;6.78;;;6.07;;
27758;SDS011;15148;48.972;12.794;2023-12-29T16:47:30;5.97;;;5.38;;
27758;SDS011;15148;48.972;12.794;2023-12-29T16:52:33;23.52;;;21.13;;
27758;SDS011;15148;48.972;12.794;2023-12-29T16:57:35;26.65;;;23.92;;
27758;SDS011;15148;48.972;12.794;2023-12-29T17:02:37;7.25;;;6.35;;
27758;SDS011;15148;48.972;12.794;2023-12-29T17:07:39;7.00;;;4.30;;
27758;SDS011;15148;48.972;12.794;2023-12-29T17:12:41;4.50;;;4.00;;
27758;SDS011;15148;48.972;12.794;2023-12-29T17:17:43;4.53;;;4.05;;
27758;SDS011;15148;48.972;12.794;2023-12-29T17:22:46;3.80;;;3.40;;
27758;SDS011;15148;48.972;12.794;2023-12-29T17:27:48;4.10;;;3.70;;
27758;SDS011;15148;48.972;12.794;2023-12-29T17:32:50;5.55;;;4.80;;
27758;SDS011;15148;48.972;12.794;2023-12-29T17:37:52;5.90;;;4.82;;
27758;SDS011;15148;48.972;12.794;2023-12-29T17:42:53;7.07;;;5.63;;
27758;SDS011;15148;48.972;12.794;2023-12-29T17:47:55;7.30;;;5.85;;
27758;SDS011;15148;48.972;12.794;2023-12-29T17:52:58;10.43;;;6.82;;
27758;SDS011;15148;48.972;12.794;2023-12-29T17:58:00;8.68;;;6.07;;
27758;SDS011;15148;48.972;12.794;2023-12-29T18:03:02;5.15;;;3.90;;
27758;SDS011;15148;48.972;12.794;2023-12-29T18:08:06;7.50;;;6.00;;
27758;SDS011;15148;48.972;12.794;2023-12-29T18:13:08;5.18;;;4.40;;
27758;SDS011;15148;48.972;12.794;2023-12-29T18:18:10;6.63;;;4.88;;
27758;SDS011;15148;48.972;12.794;2023-12-29T18:23:15;5.68;;;4.55;;
27758;SDS011;15148;48.972;12.794;2023-12-29T18:28:17;5.00;;;4.50;;
27758;SDS011;15148;48.972;12.794;2023-12-29T18:33:19;4.45;;;3.85;;
27758;SDS011;15148;48.972;12.794;2023-12-29T18:38:21;10.38;;;7.43;;
27758;SDS011;15148;48.972;12.794;2023-12-29T18:43:24;6.03;;;4.93;;
27758;SDS011;15148;48.972;12.794;2023-12-29T18:48:26;4.57;;;3.40;;
27758;SDS011;15148;48.972;12.794;2023-12-29T18:53:29;3.78;;;3.47;;
27758;SDS011;15148;48.972;12.794;2023-12-29T18:58:31;3.67;;;3.30;;
27758;SDS011;15148;48.972;12.794;2023-12-29T19:03:34;9.70;;;7.38;;
27758;SDS011;15148;48.972;12.794;2023-12-29T19:08:36;5.68;;;4.55;;
27758;SDS011;15148;48.972;12.794;2023-12-29T19:13:38;8.38;;;6.20;;
27758;SDS011;15148;48.972;12.794;2023-12-29T19:18:42;10.90;;;8.10;;
27758;SDS011;15148;48.972;12.794;2023-12-29T19:23:44;5.90;;;5.30;;
27758;SDS011;15148;48.972;12.794;2023-12-29T19:28:47;5.20;;;3.33;;
27758;SDS011;15148;48.972;12.794;2023-12-29T19:33:50;5.13;;;4.00;;
27758;SDS011;15148;48.972;12.794;2023-12-29T19:38:53;5.75;;;3.72;;
27758;SDS011;15148;48.972;12.794;2023-12-29T19:43:55;5.80;;;4.57;;
27758;SDS011;15148;48.972;12.794;2023-12-29T19:48:57;5.63;;;3.40;;
27758;SDS011;15148;48.972;12.794;2023-12-29T19:54:00;4.13;;;3.38;;
27758;SDS011;15148;48.972;12.794;2023-12-29T19:59:02;4.50;;;2.63;;
27758;SDS011;15148;48.972;12.794;2023-12-29T20:04:05;3.90;;;3.53;;
27758;SDS011;15148;48.972;12.794;2023-12-29T20:09:07;5.28;;;3.67;;
27758;SDS011;15148;48.972;12.794;2023-12-29T20:14:09;6.45;;;3.58;;
27758;SDS011;15148;48.972;12.794;2023-12-29T20:19:13;4.03;;;3.47;;
27758;SDS011;15148;48.972;12.794;2023-12-29T20:24:15;4.22;;;3.47;;
27758;SDS011;15148;48.972;12.794;2023-12-29T20:29:17;6.07;;;5.10;;
27758;SDS011;15148;48.972;12.794;2023-12-29T20:34:20;4.32;;;3.67;;
27758;SDS011;15148;48.972;12.794;2023-12-29T20:39:23;4.45;;;3.60;;
27758;SDS011;15148;48.972;12.794;2023-12-29T20:44:25;3.80;;;3.50;;
27758;SDS011;15148;48.972;12.794;2023-12-29T20:49:27;5.65;;;3.65;;
27758;SDS011;15148;48.972;12.794;2023-12-29T20:54:29;3.70;;;3.35;;
27758;SDS011;15148;48.972;12.794;2023-12-29T20:59:37;5.18;;;3.70;;
27758;SDS011;15148;48.972;12.794;2023-12-29T21:04:40;4.28;;;3.40;;
27758;SDS011;15148;48.972;12.794;2023-12-29T21:09:44;3.97;;;3.40;;
27758;SDS011;15148;48.972;12.794;2023-12-29T21:14:46;5.18;;;3.60;;
27758;SDS011;15148;48.972;12.794;2023-12-29T21:19:48;3.33;;;2.83;;
27758;SDS011;15148;48.972;12.794;2023-12-29T21:24:54;5.15;;;3.50;;
27758;SDS011;15148;48.972;12.794;2023-12-29T21:29:58;4.13;;;3.40;;
27758;SDS011;15148;48.972;12.794;2023-12-29T21:35:00;3.78;;;3.40;;
27758;SDS011;15148;48.972;12.794;2023-12-29T21:40:05;4.28;;;3.45;;
27758;SDS011;15148;48.972;12.794;2023-12-29T21:45:08;4.07;;;3.67;;
27758;SDS011;15148;48.972;12.794;2023-12-29T21:50:11;6.18;;;3.15;;
27758;SDS011;15148;48.972;12.794;2023-12-29T21:55:13;3.70;;;3.40;;
27758;SDS011;15148;48.972;12.794;2023-12-29T22:00:16;3.35;;;3.05;;
27758;SDS011;15148;48.972;12.794;2023-12-29T22:05:19;5.25;;;3.30;;
27758;SDS011;15148;48.972;12.794;2023-12-29T22:10:21;3.45;;;3.03;;
27758;SDS011;15148;48.972;12.794;2023-12-29T22:15:24;3.55;;;3.03;;
27758;SDS011;15148;48.972;12.794;2023-12-29T22:20:26;3.47;;;3.17;;
27758;SDS011;15148;48.972;12.794;2023-12-29T22:25:28;4.10;;;3.60;;
27758;SDS011;15148;48.972;12.794;2023-12-29T22:30:31;3.90;;;3.50;;
27758;SDS011;15148;48.972;12.794;2023-12-29T22:35:34;3.80;;;3.33;;
27758;SDS011;15148;48.972;12.794;2023-12-29T22:40:36;4.10;;;3.70;;
27758;SDS011;15148;48.972;12.794;2023-12-29T22:45:38;4.50;;;3.10;;
27758;SDS011;15148;48.972;12.794;2023-12-29T22:50:40;4.93;;;3.15;;
27758;SDS011;15148;48.972;12.794;2023-12-29T22:55:42;4.55;;;3.28;;
27758;SDS011;15148;48.972;12.794;2023-12-29T23:00:44;3.53;;;3.22;;
27758;SDS011;15148;48.972;12.794;2023-12-29T23:05:46;3.80;;;3.47;;
27758;SDS011;15148;48.972;12.794;2023-12-29T23:10:49;6.53;;;4.30;;
27758;SDS011;15148;48.972;12.794;2023-12-29T23:15:51;5.55;;;3.75;;
27758;SDS011;15148;48.972;12.794;2023-12-29T23:20:53;5.47;;;4.13;;
27758;SDS011;15148;48.972;12.794;2023-12-29T23:25:55;5.03;;;4.25;;
27758;SDS011;15148;48.972;12.794;2023-12-29T23:30:57;6.00;;;4.18;;
27758;SDS011;15148;48.972;12.794;2023-12-29T23:36:00;5.72;;;4.80;;
27758;SDS011;15148;48.972;12.794;2023-12-29T23:41:02;5.40;;;4.50;;
27758;SDS011;15148;48.972;12.794;2023-12-29T23:46:05;8.18;;;4.38;;
27758;SDS011;15148;48.972;12.794;2023-12-29T23:51:07;4.65;;;4.07;;
27758;SDS011;15148;48.972;12.794;2023-12-29T23:56:09;6.32;;;4.47;;
